Time;durP1;ratioP1;P1;durP2;ratioP2;P2;SDS_P1;SDS_P2;PMS_P1;PMS_P2;Temp;Humidity;BMP_temperature;BMP_pressure;BME280_temperature;BME280_humidity;BME280_pressure;Samples;Min_cycle;Max_cycle;Signal;HPM_P1;HPM_P2
2021/10/31 00:01:35;;;;;;;60.80;31.38;;;12.00;99.90;;;;;;5094899;28;20058;-77
2021/10/31 00:04:02;;;;;;;55.10;29.35;;;12.00;99.90;;;;;;5097619;28;20048;-77
2021/10/31 00:06:28;;;;;;;52.67;29.85;;;12.00;99.90;;;;;;5069292;28;20052;-77
2021/10/31 00:08:55;;;;;;;52.75;29.17;;;12.00;99.90;;;;;;5094857;28;20066;-77
2021/10/31 00:11:22;;;;;;;57.90;29.67;;;12.00;99.90;;;;;;5105456;28;20070;-77
2021/10/31 00:13:49;;;;;;;58.53;31.35;;;12.00;99.90;;;;;;5102100;28;20079;-77
2021/10/31 00:16:16;;;;;;;55.90;30.00;;;12.10;99.90;;;;;;5100504;28;20079;-77
2021/10/31 00:18:43;;;;;;;55.03;28.73;;;12.10;99.90;;;;;;5084298;28;20056;-77
2021/10/31 00:21:10;;;;;;;50.30;28.77;;;12.20;99.90;;;;;;5099398;28;20052;-77
2021/10/31 00:23:36;;;;;;;56.55;29.45;;;12.20;99.90;;;;;;5087619;28;20564;-77
2021/10/31 00:26:03;;;;;;;50.30;26.48;;;12.20;99.90;;;;;;5087674;28;20094;-77
2021/10/31 00:28:30;;;;;;;47.65;27.00;;;12.20;99.90;;;;;;5082894;28;20136;-77
2021/10/31 00:30:57;;;;;;;53.20;29.08;;;12.20;99.90;;;;;;5097662;28;20095;-77
2021/10/31 00:33:24;;;;;;;51.70;27.83;;;12.20;99.90;;;;;;5104307;28;20043;-77
2021/10/31 00:35:51;;;;;;;57.35;28.45;;;12.20;99.90;;;;;;5079863;28;20132;-77
2021/10/31 00:38:18;;;;;;;50.22;26.77;;;12.10;99.90;;;;;;5087452;28;20079;-77
2021/10/31 00:40:45;;;;;;;57.33;27.58;;;12.10;99.90;;;;;;5092134;28;20101;-77
2021/10/31 00:43:11;;;;;;;52.85;27.77;;;12.20;99.90;;;;;;5068070;28;20079;-77
2021/10/31 00:45:41;;;;;;;48.78;26.30;;;12.20;99.90;;;;;;5103761;28;20050;-77
2021/10/31 00:48:09;;;;;;;51.25;27.83;;;12.20;99.90;;;;;;5089904;28;20055;-77
2021/10/31 00:50:36;;;;;;;55.40;28.00;;;12.20;99.90;;;;;;5078389;28;20140;-77
2021/10/31 00:53:03;;;;;;;50.60;26.70;;;12.20;99.90;;;;;;5103614;28;20134;-77
2021/10/31 00:55:30;;;;;;;44.67;25.80;;;12.00;99.90;;;;;;5102178;28;20055;-77
2021/10/31 00:57:58;;;;;;;53.60;27.63;;;11.90;99.90;;;;;;5106318;28;20135;-77
2021/10/31 01:00:25;;;;;;;50.22;26.08;;;12.00;99.90;;;;;;5102870;28;20055;-77
2021/10/31 01:02:52;;;;;;;47.25;25.58;;;11.90;99.90;;;;;;5096785;28;20107;-77
2021/10/31 01:05:25;;;;;;;47.97;26.60;;;11.80;99.90;;;;;;5097165;28;20135;-77
2021/10/31 01:08:03;;;;;;;49.47;26.85;;;11.80;99.90;;;;;;5092631;28;20143;-77
2021/10/31 01:11:00;;;;;;;50.58;27.77;;;11.90;99.90;;;;;;5100153;22;20088;-81
2021/10/31 01:14:07;;;;;;;49.58;26.38;;;11.90;99.90;;;;;;5086962;28;20067;-81
2021/10/31 01:17:09;;;;;;;55.38;25.92;;;12.00;99.90;;;;;;5096894;28;20377;-81
2021/10/31 01:20:20;;;;;;;45.05;24.85;;;12.10;99.90;;;;;;5090627;28;20181;-81
2021/10/31 01:23:24;;;;;;;52.60;25.15;;;12.10;99.90;;;;;;5073279;28;20068;-82
2021/10/31 01:26:34;;;;;;;47.53;25.33;;;12.20;99.90;;;;;;5099355;28;20373;-80
2021/10/31 01:29:10;;;;;;;44.92;24.05;;;12.20;99.90;;;;;;5090081;28;20050;-80
2021/10/31 01:32:16;;;;;;;49.55;24.58;;;12.10;99.90;;;;;;5104693;28;20127;-81
2021/10/31 01:35:16;;;;;;;47.67;23.88;;;12.10;99.90;;;;;;5064580;28;20052;-81
2021/10/31 01:37:46;;;;;;;43.90;24.00;;;12.10;99.90;;;;;;5089582;28;20127;-80
2021/10/31 01:40:50;;;;;;;44.03;24.17;;;12.10;99.90;;;;;;5087195;28;20489;-81
2021/10/31 01:43:42;;;;;;;43.30;23.63;;;12.20;99.90;;;;;;5087479;28;20083;-81
2021/10/31 01:46:22;;;;;;;40.97;22.50;;;12.30;99.90;;;;;;5101538;28;20833;-80
2021/10/31 01:49:01;;;;;;;45.95;22.15;;;12.30;99.90;;;;;;5098627;28;20052;-81
2021/10/31 01:51:36;;;;;;;40.63;22.77;;;12.30;99.90;;;;;;5089747;28;20044;-81
2021/10/31 01:54:06;;;;;;;41.97;21.17;;;12.40;99.90;;;;;;5091348;28;20472;-81
2021/10/31 01:56:35;;;;;;;40.88;22.95;;;12.40;99.90;;;;;;5086589;28;20152;-81
2021/10/31 01:59:14;;;;;;;43.05;21.35;;;12.40;99.90;;;;;;5102412;28;20075;-81
2021/10/31 02:01:43;;;;;;;43.42;21.48;;;12.40;99.90;;;;;;5079886;28;20584;-80
2021/10/31 02:04:14;;;;;;;37.35;21.33;;;12.40;99.90;;;;;;5103209;28;20058;-81
2021/10/31 02:06:47;;;;;;;46.45;20.23;;;12.20;99.90;;;;;;5097061;22;20500;-77
2021/10/31 02:09:23;;;;;;;36.30;19.52;;;12.10;99.90;;;;;;5052447;28;20131;-77
2021/10/31 02:11:50;;;;;;;;;;;12.00;99.90;;;;;;5071514;28;20131;-77
2021/10/31 02:14:19;;;;;;;43.05;21.00;;;12.00;99.90;;;;;;5084524;28;19924;-77
2021/10/31 02:16:46;;;;;;;41.10;22.38;;;11.90;99.90;;;;;;5065567;28;20097;-77
2021/10/31 02:19:30;;;;;;;44.35;22.42;;;11.90;99.90;;;;;;5062857;28;20052;-77
2021/10/31 02:22:00;;;;;;;40.22;21.05;;;12.00;99.90;;;;;;5066673;28;20048;-77
2021/10/31 02:24:27;;;;;;;55.58;25.30;;;12.00;99.90;;;;;;5066574;28;20091;-77
2021/10/31 02:26:56;;;;;;;39.05;20.02;;;12.00;99.90;;;;;;5061249;28;20164;-77
2021/10/31 02:29:23;;;;;;;43.97;21.55;;;11.90;99.90;;;;;;5077620;28;20044;-77
2021/10/31 02:31:50;;;;;;;45.22;22.70;;;12.00;99.90;;;;;;5057636;28;20115;-77
2021/10/31 02:34:17;;;;;;;44.55;21.75;;;12.00;99.90;;;;;;5068112;28;20049;-76
2021/10/31 02:36:44;;;;;;;45.30;21.33;;;12.00;99.90;;;;;;5071557;28;20075;-77
2021/10/31 02:39:11;;;;;;;42.40;21.30;;;12.00;99.90;;;;;;5078372;28;20076;-77
2021/10/31 02:41:38;;;;;;;43.28;21.00;;;12.00;99.90;;;;;;5053374;28;20044;-77
2021/10/31 02:44:06;;;;;;;42.40;21.50;;;12.10;99.90;;;;;;5049118;28;20771;-76
2021/10/31 02:46:35;;;;;;;44.63;22.38;;;12.10;99.90;;;;;;5067588;28;20098;-77
2021/10/31 02:49:05;;;;;;;40.88;21.83;;;12.00;99.90;;;;;;5055976;28;20084;-77
2021/10/31 02:51:41;;;;;;;48.25;21.38;;;12.00;99.90;;;;;;5086944;28;20128;-77
2021/10/31 02:54:51;;;;;;;37.95;20.02;;;12.00;99.90;;;;;;5051506;28;20173;-81
2021/10/31 02:57:25;;;;;;;39.00;20.52;;;12.10;99.90;;;;;;5077327;28;20143;-80
2021/10/31 03:00:00;;;;;;;48.07;21.77;;;12.10;99.90;;;;;;5089450;28;20560;-81
2021/10/31 03:02:28;;;;;;;43.10;21.98;;;12.20;99.90;;;;;;5079806;28;20555;-81
2021/10/31 03:04:55;;;;;;;41.85;22.25;;;12.20;99.90;;;;;;5086523;28;20048;-81
2021/10/31 03:07:22;;;;;;;41.17;21.77;;;12.20;99.90;;;;;;5077831;28;20040;-81
2021/10/31 03:09:50;;;;;;;40.05;21.90;;;12.20;99.90;;;;;;5080338;28;20044;-81
2021/10/31 03:12:18;;;;;;;46.53;21.63;;;12.10;99.90;;;;;;5071649;28;20200;-81
2021/10/31 03:14:46;;;;;;;45.47;21.17;;;12.10;99.90;;;;;;5059766;28;20104;-81
2021/10/31 03:17:13;;;;;;;42.97;22.27;;;12.10;99.90;;;;;;5075105;28;20075;-81
2021/10/31 03:19:40;;;;;;;45.55;22.10;;;12.10;99.90;;;;;;5065754;28;20155;-80
2021/10/31 03:22:07;;;;;;;48.00;22.10;;;12.10;99.90;;;;;;5068545;28;20075;-81
2021/10/31 03:24:36;;;;;;;47.63;22.63;;;12.10;99.90;;;;;;5066991;28;20048;-80
2021/10/31 03:27:04;;;;;;;42.20;22.02;;;12.10;99.90;;;;;;5067941;28;20048;-81
2021/10/31 03:29:31;;;;;;;47.78;21.40;;;12.10;99.90;;;;;;5061606;28;20131;-81
2021/10/31 03:31:57;;;;;;;49.70;23.15;;;12.10;99.90;;;;;;5070236;28;20143;-81
2021/10/31 03:34:24;;;;;;;46.13;21.20;;;12.10;99.90;;;;;;5064186;28;20113;-81
2021/10/31 03:36:51;;;;;;;39.95;21.30;;;12.10;99.90;;;;;;5066484;28;20071;-81
2021/10/31 03:39:18;;;;;;;43.83;21.33;;;12.10;99.90;;;;;;5086324;28;20415;-81
2021/10/31 03:41:46;;;;;;;39.47;21.33;;;12.30;99.90;;;;;;5087138;28;20460;-81
2021/10/31 03:44:17;;;;;;;41.20;21.13;;;12.20;99.90;;;;;;5070392;28;20059;-81
2021/10/31 03:46:44;;;;;;;46.55;22.90;;;12.20;99.90;;;;;;5072596;28;20056;-81
2021/10/31 03:49:13;;;;;;;49.17;23.30;;;12.20;99.90;;;;;;5087066;28;20683;-80
2021/10/31 03:51:40;;;;;;;48.55;22.83;;;12.20;99.90;;;;;;5055213;28;20474;-80
2021/10/31 03:54:07;;;;;;;45.47;23.33;;;12.10;99.90;;;;;;5073278;28;20052;-80
2021/10/31 03:56:34;;;;;;;43.80;23.13;;;12.20;99.90;;;;;;5078627;28;20139;-80
2021/10/31 03:59:00;;;;;;;51.90;24.08;;;12.10;99.90;;;;;;5072181;28;20463;-80
2021/10/31 04:01:31;;;;;;;44.53;22.80;;;12.20;99.90;;;;;;5064297;28;20067;-80
2021/10/31 04:04:01;;;;;;;47.42;22.95;;;12.20;99.90;;;;;;5064444;28;20055;-81
2021/10/31 04:06:28;;;;;;;44.92;21.85;;;12.10;99.90;;;;;;5079857;28;20060;-80
2021/10/31 04:08:55;;;;;;;47.28;23.23;;;12.30;99.90;;;;;;5066812;28;20139;-80
2021/10/31 04:11:22;;;;;;;49.08;23.20;;;12.20;99.90;;;;;;5065216;28;20129;-80
2021/10/31 04:13:49;;;;;;;50.78;23.77;;;12.20;99.90;;;;;;5072303;28;20053;-80
2021/10/31 04:16:16;;;;;;;43.70;23.35;;;12.10;99.90;;;;;;5072901;28;20445;-80
2021/10/31 04:18:43;;;;;;;45.38;22.15;;;12.00;99.90;;;;;;5073015;28;20055;-80
2021/10/31 04:21:11;;;;;;;44.92;22.08;;;12.00;99.90;;;;;;5056131;28;20789;-81
2021/10/31 04:23:37;;;;;;;44.78;23.63;;;11.90;99.90;;;;;;5084218;28;20138;-81
2021/10/31 04:26:04;;;;;;;46.67;22.77;;;11.90;99.90;;;;;;5069666;28;20056;-81
2021/10/31 04:28:31;;;;;;;46.13;23.48;;;11.90;99.90;;;;;;5088614;28;20090;-81
2021/10/31 04:30:58;;;;;;;43.65;22.38;;;11.90;99.90;;;;;;5087864;28;20123;-81
2021/10/31 04:33:25;;;;;;;43.72;22.67;;;12.00;99.90;;;;;;5068211;28;20048;-80
2021/10/31 04:35:52;;;;;;;43.47;21.20;;;12.00;99.90;;;;;;5059323;28;20124;-81
2021/10/31 04:38:29;;;;;;;45.55;21.55;;;12.00;99.90;;;;;;5081743;28;20087;-77
2021/10/31 04:40:57;;;;;;;50.88;23.52;;;12.10;99.90;;;;;;5076709;28;20051;-77
2021/10/31 04:43:26;;;;;;;44.22;21.90;;;12.10;99.90;;;;;;5081321;28;20056;-77
2021/10/31 04:45:54;;;;;;;41.00;20.42;;;12.20;99.90;;;;;;5078642;28;20052;-77
2021/10/31 04:48:23;;;;;;;43.28;21.05;;;12.20;99.90;;;;;;5066412;28;20565;-77
2021/10/31 04:50:52;;;;;;;42.13;21.23;;;12.10;99.90;;;;;;5072124;28;20151;-76
2021/10/31 04:53:19;;;;;;;43.65;22.00;;;12.20;99.90;;;;;;5072895;28;20138;-77
2021/10/31 04:55:45;;;;;;;45.00;21.55;;;12.20;99.90;;;;;;5068911;28;20052;-77
2021/10/31 04:58:12;;;;;;;45.00;20.75;;;12.20;99.90;;;;;;5063290;28;20064;-77
2021/10/31 05:00:39;;;;;;;41.47;21.65;;;12.20;99.90;;;;;;5075176;28;20150;-77
2021/10/31 05:03:07;;;;;;;41.42;20.60;;;12.30;99.90;;;;;;5073278;28;20064;-77
2021/10/31 05:05:34;;;;;;;44.00;20.00;;;12.30;99.90;;;;;;5059157;28;20055;-76
2021/10/31 05:08:02;;;;;;;40.13;20.48;;;12.30;99.90;;;;;;5058155;28;20163;-77
2021/10/31 05:10:29;;;;;;;41.83;19.95;;;12.30;99.90;;;;;;5076674;28;20072;-77
2021/10/31 05:12:55;;;;;;;40.10;19.10;;;12.30;99.90;;;;;;5058294;28;20118;-77
2021/10/31 05:15:22;;;;;;;32.83;17.27;;;12.40;99.90;;;;;;5058004;28;20149;-77
2021/10/31 05:17:49;;;;;;;42.22;19.80;;;12.40;99.90;;;;;;5081649;28;20441;-77
2021/10/31 05:20:16;;;;;;;39.70;19.40;;;12.40;99.90;;;;;;5070205;28;20056;-77
2021/10/31 05:22:43;;;;;;;34.45;18.58;;;12.40;99.90;;;;;;5064474;28;20051;-77
2021/10/31 05:25:11;;;;;;;39.85;20.15;;;12.40;99.90;;;;;;5076420;28;20047;-77
2021/10/31 05:27:38;;;;;;;43.45;18.90;;;12.40;99.90;;;;;;5065093;28;20150;-77
2021/10/31 05:30:07;;;;;;;38.15;18.45;;;12.30;99.90;;;;;;5047679;28;20099;-77
2021/10/31 05:32:36;;;;;;;37.42;18.42;;;12.20;99.90;;;;;;5073528;28;20123;-77
2021/10/31 05:35:04;;;;;;;35.55;18.85;;;12.30;99.90;;;;;;5084485;28;20106;-77
2021/10/31 05:37:39;;;;;;;38.35;18.73;;;12.30;99.90;;;;;;5084561;28;20079;-77
2021/10/31 05:40:08;;;;;;;38.28;20.13;;;12.30;99.90;;;;;;5060044;28;20127;-77
2021/10/31 05:42:35;;;;;;;38.25;19.42;;;12.30;99.90;;;;;;5063024;28;20936;-77
2021/10/31 05:45:02;;;;;;;33.13;18.23;;;12.30;99.90;;;;;;5073322;28;20114;-77
2021/10/31 05:47:30;;;;;;;39.00;18.77;;;12.30;99.90;;;;;;5066992;28;20147;-77
2021/10/31 05:49:57;;;;;;;38.25;18.83;;;12.40;99.90;;;;;;5057565;28;20150;-77
2021/10/31 05:52:24;;;;;;;37.22;19.45;;;12.40;99.90;;;;;;5078618;28;20475;-77
2021/10/31 05:54:50;;;;;;;33.72;17.17;;;12.50;99.90;;;;;;5052534;28;20048;-77
2021/10/31 05:57:17;;;;;;;37.47;18.60;;;12.50;99.90;;;;;;5078550;28;20048;-77
2021/10/31 05:59:44;;;;;;;39.65;18.27;;;12.50;99.90;;;;;;5058807;28;20075;-77
2021/10/31 06:02:11;;;;;;;32.25;18.50;;;12.50;99.90;;;;;;5059816;28;20183;-77
2021/10/31 06:04:40;;;;;;;34.65;18.25;;;12.50;99.90;;;;;;5064882;28;20056;-77
2021/10/31 06:07:07;;;;;;;36.28;17.67;;;12.50;99.90;;;;;;5058691;28;20150;-77
2021/10/31 06:09:34;;;;;;;35.60;17.15;;;12.60;99.90;;;;;;5057606;28;20084;-77
2021/10/31 06:12:04;;;;;;;35.42;18.48;;;12.60;99.90;;;;;;5084769;28;20143;-77
2021/10/31 06:14:32;;;;;;;34.65;18.30;;;12.60;99.90;;;;;;5074498;28;20127;-77
2021/10/31 06:17:00;;;;;;;35.25;17.90;;;12.60;99.90;;;;;;5056148;28;20068;-77
2021/10/31 06:19:27;;;;;;;37.17;17.48;;;12.70;99.90;;;;;;5083824;28;20829;-77
2021/10/31 06:21:54;;;;;;;33.85;16.58;;;12.60;99.90;;;;;;5088285;28;20131;-78
2021/10/31 06:24:20;;;;;;;32.13;17.42;;;12.70;99.90;;;;;;5085608;28;20163;-77
2021/10/31 06:26:47;;;;;;;34.70;15.77;;;12.70;99.90;;;;;;5086391;28;20083;-77
2021/10/31 06:29:14;;;;;;;33.45;17.67;;;12.80;99.90;;;;;;5082127;28;20473;-77
2021/10/31 06:31:41;;;;;;;30.67;17.17;;;12.70;99.90;;;;;;5081205;28;20107;-77
2021/10/31 06:34:10;;;;;;;32.50;17.25;;;12.80;99.90;;;;;;5059971;28;20059;-77
2021/10/31 06:36:37;;;;;;;35.15;16.95;;;12.80;99.90;;;;;;5070481;28;20080;-77
2021/10/31 06:39:05;;;;;;;33.30;16.73;;;12.80;99.90;;;;;;5078888;28;20131;-77
2021/10/31 06:41:33;;;;;;;34.58;17.35;;;12.70;99.90;;;;;;5077157;28;20048;-77
2021/10/31 06:43:59;;;;;;;33.17;17.00;;;12.70;99.90;;;;;;5078269;28;20049;-77
2021/10/31 06:46:26;;;;;;;34.20;17.75;;;12.80;99.90;;;;;;5088164;28;20052;-77
2021/10/31 06:48:53;;;;;;;33.42;16.85;;;12.90;99.90;;;;;;5066460;28;20040;-77
2021/10/31 06:51:20;;;;;;;37.13;16.60;;;12.90;99.90;;;;;;5072786;28;20440;-78
2021/10/31 06:57:03;;;;;;;28.98;16.85;;;13.10;99.90;;;;;;5038321;28;20156;-78
2021/10/31 06:59:32;;;;;;;34.05;17.25;;;13.10;99.90;;;;;;5046511;28;20159;-78
2021/10/31 07:01:59;;;;;;;30.58;16.60;;;13.10;99.90;;;;;;5030901;28;20160;-78
2021/10/31 07:04:27;;;;;;;35.38;17.42;;;13.10;99.90;;;;;;5053275;28;20071;-77
2021/10/31 07:06:54;;;;;;;31.48;16.38;;;13.10;99.90;;;;;;5048066;28;20115;-80
2021/10/31 07:09:21;;;;;;;36.67;17.35;;;13.10;99.90;;;;;;5057796;28;20416;-80
2021/10/31 07:11:48;;;;;;;33.78;17.02;;;13.10;99.90;;;;;;5039370;28;20080;-80
2021/10/31 07:14:16;;;;;;;31.92;17.30;;;13.20;99.90;;;;;;5046753;28;20756;-80
2021/10/31 07:16:44;;;;;;;31.38;16.33;;;13.20;99.90;;;;;;5049406;28;20095;-80
2021/10/31 07:19:11;;;;;;;31.98;16.25;;;13.30;99.90;;;;;;5051594;28;20087;-81
2021/10/31 07:21:37;;;;;;;28.60;15.32;;;13.40;99.90;;;;;;5052256;28;20080;-81
2021/10/31 07:24:05;;;;;;;29.25;15.60;;;13.60;99.90;;;;;;5055894;28;20466;-81
2021/10/31 07:26:32;;;;;;;33.17;16.17;;;14.00;99.90;;;;;;5033889;28;20124;-81
2021/10/31 07:29:00;;;;;;;25.83;13.82;;;14.20;99.90;;;;;;5050505;28;20091;-80
2021/10/31 07:31:28;;;;;;;24.85;14.70;;;14.40;99.90;;;;;;5023423;28;20132;-83
2021/10/31 07:33:55;;;;;;;27.58;14.90;;;14.70;99.90;;;;;;5033578;28;20051;-80
2021/10/31 07:36:22;;;;;;;23.80;12.98;;;14.90;99.90;;;;;;5052379;28;20037;-81
2021/10/31 07:38:49;;;;;;;29.23;15.13;;;15.00;99.90;;;;;;5054938;28;20076;-80
2021/10/31 07:41:16;;;;;;;29.67;15.07;;;15.00;99.90;;;;;;5035999;28;20057;-80
2021/10/31 07:43:42;;;;;;;27.58;14.52;;;15.10;99.90;;;;;;5052749;28;20128;-80
2021/10/31 07:46:10;;;;;;;24.70;14.35;;;15.20;99.90;;;;;;5052001;28;20500;-81
2021/10/31 07:48:36;;;;;;;23.88;13.55;;;15.30;99.90;;;;;;5046523;28;20053;-78
2021/10/31 07:51:03;;;;;;;23.75;12.45;;;15.30;99.90;;;;;;5046138;28;20467;-79
2021/10/31 07:53:30;;;;;;;26.25;13.52;;;15.30;99.90;;;;;;5023779;28;20044;-81
2021/10/31 07:55:57;;;;;;;31.85;13.65;;;15.20;99.90;;;;;;5019383;28;20077;-81
2021/10/31 07:58:26;;;;;;;29.33;14.07;;;15.20;99.90;;;;;;5031592;28;20103;-84
2021/10/31 08:00:54;;;;;;;23.83;13.52;;;14.90;99.90;;;;;;5021067;28;20076;-85
2021/10/31 08:03:21;;;;;;;26.27;13.38;;;14.90;99.90;;;;;;5041295;28;20162;-86
2021/10/31 08:05:49;;;;;;;23.77;13.00;;;14.90;99.90;;;;;;5021559;28;20107;-81
2021/10/31 08:08:22;;;;;;;25.38;13.63;;;14.90;99.90;;;;;;5048101;28;20081;-81
2021/10/31 08:14:07;;;;;;;25.88;13.20;;;14.90;99.90;;;;;;5029061;28;20064;-85
2021/10/31 08:16:36;;;;;;;25.33;12.80;;;14.90;99.90;;;;;;5011037;28;20045;-84
2021/10/31 08:19:06;;;;;;;24.40;13.52;;;14.80;99.90;;;;;;5037939;28;20053;-86
2021/10/31 08:21:33;;;;;;;26.98;14.27;;;14.90;99.90;;;;;;5013619;28;20148;-85
2021/10/31 08:24:00;;;;;;;24.08;13.02;;;15.00;99.90;;;;;;5030119;28;20124;-82
2021/10/31 08:26:27;;;;;;;25.58;13.32;;;15.00;99.90;;;;;;5014121;28;20851;-79
2021/10/31 08:28:54;;;;;;;28.45;13.43;;;15.10;99.90;;;;;;5013495;28;20100;-79
2021/10/31 08:31:27;;;;;;;30.70;13.38;;;15.20;99.90;;;;;;5028640;28;20516;-79
2021/10/31 08:33:59;;;;;;;24.45;13.57;;;15.20;99.90;;;;;;5030648;28;20498;-79
2021/10/31 08:36:29;;;;;;;21.85;13.13;;;15.30;99.90;;;;;;5032922;28;20053;-78
2021/10/31 08:38:58;;;;;;;23.92;12.70;;;15.20;99.90;;;;;;5021446;28;20049;-80
2021/10/31 08:41:26;;;;;;;26.98;13.73;;;15.20;99.90;;;;;;5003240;28;20085;-78
2021/10/31 08:43:57;;;;;;;26.40;14.02;;;15.20;99.90;;;;;;5025499;28;20533;-77
2021/10/31 08:46:26;;;;;;;22.33;13.07;;;15.20;99.90;;;;;;5028251;28;20124;-79
2021/10/31 08:48:54;;;;;;;25.52;13.40;;;15.30;99.90;;;;;;5010015;28;20081;-77
2021/10/31 08:51:24;;;;;;;28.88;12.70;;;15.50;99.90;;;;;;5024653;28;20104;-77
2021/10/31 08:53:52;;;;;;;28.67;14.18;;;15.70;99.90;;;;;;5010029;28;20124;-77
2021/10/31 08:56:26;;;;;;;21.50;12.65;;;15.90;99.90;;;;;;5002626;28;20516;-77
2021/10/31 08:58:54;;;;;;;23.58;12.32;;;15.90;99.90;;;;;;5023008;28;20080;-79
2021/10/31 09:01:21;;;;;;;21.95;12.18;;;15.90;99.90;;;;;;5029731;28;20127;-78
2021/10/31 09:03:52;;;;;;;21.20;12.48;;;16.10;99.90;;;;;;5028435;28;20072;-79
2021/10/31 09:06:24;;;;;;;20.88;12.25;;;16.40;99.90;;;;;;5012651;28;20163;-79
2021/10/31 09:08:51;;;;;;;22.08;12.55;;;16.60;99.90;;;;;;5006882;28;20136;-80
2021/10/31 09:11:17;;;;;;;18.90;11.70;;;16.20;99.90;;;;;;5027002;28;21779;-79
2021/10/31 09:13:44;;;;;;;21.88;12.82;;;16.20;99.90;;;;;;5026600;28;20124;-80
2021/10/31 09:16:11;;;;;;;21.85;12.80;;;16.00;99.90;;;;;;5009135;28;20728;-79
2021/10/31 09:18:38;;;;;;;19.58;11.63;;;15.70;99.90;;;;;;5009115;28;20199;-80
2021/10/31 09:21:06;;;;;;;24.55;11.82;;;15.60;99.90;;;;;;5010012;28;20647;-79
2021/10/31 09:23:35;;;;;;;22.00;12.80;;;15.60;99.90;;;;;;5012201;28;20239;-80
2021/10/31 09:26:04;;;;;;;25.08;12.63;;;15.50;99.90;;;;;;5012084;28;20046;-80
2021/10/31 09:28:31;;;;;;;22.25;12.73;;;15.50;99.90;;;;;;5014848;28;20124;-80
2021/10/31 09:31:00;;;;;;;25.15;13.05;;;15.50;99.90;;;;;;5025970;28;20537;-80
2021/10/31 09:33:29;;;;;;;28.55;13.38;;;15.40;99.90;;;;;;5025898;28;20052;-80
2021/10/31 09:35:57;;;;;;;23.15;12.38;;;15.40;99.90;;;;;;5026836;28;20049;-80
2021/10/31 09:38:26;;;;;;;22.83;12.88;;;15.40;99.90;;;;;;5025131;28;20433;-79
2021/10/31 09:40:54;;;;;;;24.00;12.77;;;15.50;99.90;;;;;;5026822;28;20049;-77
2021/10/31 09:43:24;;;;;;;20.73;11.80;;;15.40;99.90;;;;;;5024733;28;20057;-78
2021/10/31 09:45:50;;;;;;;19.85;12.35;;;15.60;99.90;;;;;;5006974;28;20057;-80
2021/10/31 09:48:17;;;;;;;19.38;12.15;;;15.60;99.90;;;;;;5007708;28;20077;-80
2021/10/31 09:50:50;;;;;;;25.90;13.13;;;15.80;99.90;;;;;;5013736;28;20053;-78
2021/10/31 09:53:20;;;;;;;25.42;12.60;;;15.90;99.90;;;;;;5025918;28;20063;-81
2021/10/31 09:55:48;;;;;;;18.83;12.48;;;16.10;99.90;;;;;;5004161;28;20124;-78
2021/10/31 09:58:29;;;;;;;21.67;12.10;;;16.20;99.90;;;;;;5009977;28;20765;-78
2021/10/31 10:01:05;;;;;;;19.75;11.63;;;16.30;99.90;;;;;;5021035;28;20099;-79
2021/10/31 10:03:35;;;;;;;25.02;11.77;;;16.60;99.90;;;;;;5023914;28;20077;-78
2021/10/31 10:06:22;;;;;;;19.35;11.18;;;16.90;99.90;;;;;;5023980;28;20049;-79
2021/10/31 10:08:58;;;;;;;20.17;11.07;;;16.90;99.90;;;;;;5008205;28;20077;-78
2021/10/31 10:11:27;;;;;;;21.42;11.82;;;16.70;99.90;;;;;;5002100;28;20077;-79
2021/10/31 10:14:05;;;;;;;18.05;10.50;;;16.70;99.90;;;;;;5006154;28;20132;-79
2021/10/31 10:16:32;;;;;;;19.60;11.77;;;16.90;99.90;;;;;;5005114;28;20141;-80
2021/10/31 10:19:00;;;;;;;20.98;10.95;;;17.20;99.90;;;;;;5024326;28;20067;-79
2021/10/31 10:21:31;;;;;;;15.45;10.63;;;17.60;99.90;;;;;;5032593;28;20133;-85
2021/10/31 10:24:00;;;;;;;14.38;9.93;;;18.10;99.90;;;;;;5032160;28;20088;-84
2021/10/31 10:26:42;;;;;;;13.43;9.38;;;18.10;99.90;;;;;;5025055;28;20482;-84
2021/10/31 10:29:11;;;;;;;14.43;9.70;;;18.10;99.90;;;;;;5023717;28;20089;-85
2021/10/31 10:31:43;;;;;;;12.80;9.63;;;17.90;99.90;;;;;;5011114;28;20103;-87
2021/10/31 10:34:13;;;;;;;15.13;9.75;;;18.10;99.90;;;;;;5030564;28;20099;-85
2021/10/31 10:36:45;;;;;;;18.40;9.88;;;18.20;99.90;;;;;;5024457;28;20091;-85
2021/10/31 10:39:15;;;;;;;14.02;9.68;;;17.80;99.90;;;;;;5016006;28;20076;-84
2021/10/31 10:41:46;;;;;;;15.15;9.43;;;17.50;99.90;;;;;;5014325;28;20140;-85
2021/10/31 10:44:36;;;;;;;13.10;8.95;;;17.50;99.90;;;;;;5030731;28;20741;-87
2021/10/31 10:47:04;;;;;;;14.00;9.85;;;17.30;99.90;;;;;;5013287;28;20107;-85
2021/10/31 10:49:34;;;;;;;13.90;9.48;;;17.10;99.90;;;;;;5012082;28;20041;-86
2021/10/31 10:52:21;;;;;;;18.63;11.35;;;17.10;99.90;;;;;;5015629;28;20077;-87
2021/10/31 10:54:59;;;;;;;20.88;10.30;;;16.90;99.90;;;;;;5035540;28;20506;-86
2021/10/31 10:57:31;;;;;;;16.08;10.40;;;16.90;99.90;;;;;;5031252;28;20088;-88
2021/10/31 11:00:27;;;;;;;23.90;11.15;;;16.80;99.90;;;;;;5014484;28;20127;-88
2021/10/31 11:03:10;;;;;;;18.00;10.38;;;16.70;99.90;;;;;;5007174;28;20076;-87
2021/10/31 11:05:45;;;;;;;14.88;10.57;;;16.90;99.90;;;;;;5030238;28;20084;-88
2021/10/31 11:08:14;;;;;;;17.13;10.32;;;17.20;99.90;;;;;;5020608;28;20637;-87
2021/10/31 11:10:55;;;;;;;17.58;10.60;;;17.30;99.90;;;;;;5033137;28;20100;-87
2021/10/31 11:13:25;;;;;;;17.00;11.23;;;17.30;99.90;;;;;;5032360;28;20128;-86
2021/10/31 11:15:59;;;;;;;18.10;11.48;;;17.10;99.90;;;;;;5033555;28;20076;-86
2021/10/31 11:18:26;;;;;;;20.35;12.50;;;17.00;99.90;;;;;;5013287;28;20052;-86
2021/10/31 11:20:54;;;;;;;19.35;11.48;;;17.10;99.90;;;;;;5033543;28;20053;-85
2021/10/31 11:23:22;;;;;;;18.95;11.77;;;17.00;99.90;;;;;;5016248;28;20492;-86
2021/10/31 11:26:01;;;;;;;15.75;10.75;;;16.90;99.90;;;;;;5035957;28;20053;-86
2021/10/31 11:28:30;;;;;;;17.17;10.52;;;17.00;99.90;;;;;;5015418;28;20053;-88
2021/10/31 11:30:58;;;;;;;16.88;11.18;;;17.10;99.90;;;;;;5016811;28;20069;-86
2021/10/31 11:33:27;;;;;;;16.67;9.85;;;17.20;99.90;;;;;;5020901;28;20056;-87
2021/10/31 11:35:55;;;;;;;14.38;9.68;;;17.60;99.90;;;;;;5031683;28;20121;-85
2021/10/31 11:38:30;;;;;;;21.25;9.30;;;17.70;99.90;;;;;;5016963;28;20468;-84
2021/10/31 11:41:02;;;;;;;13.38;8.68;;;17.60;99.90;;;;;;5034174;28;20445;-84
2021/10/31 11:43:36;;;;;;;16.13;9.57;;;17.60;99.90;;;;;;5021074;28;20374;-87
2021/10/31 11:46:04;;;;;;;11.93;8.75;;;17.60;99.90;;;;;;5031759;28;20124;-84
2021/10/31 11:48:34;;;;;;;12.00;8.57;;;17.80;99.90;;;;;;5015783;28;20162;-83
2021/10/31 11:51:10;;;;;;;11.25;8.15;;;17.90;99.90;;;;;;5025588;28;20124;-84
2021/10/31 11:53:42;;;;;;;;;;;;;;;;;;5018281;28;20057;-86
2021/10/31 11:56:20;;;;;;;12.70;8.68;;;;;;;;;;5030124;28;20793;-84
2021/10/31 11:58:52;;;;;;;14.95;8.13;;;;;;;;;;5033927;28;20045;-84
2021/10/31 12:01:34;;;;;;;14.55;8.75;;;;;;;;;;5037781;28;20077;-84
2021/10/31 12:04:06;;;;;;;15.70;9.55;;;;;;;;;;5030974;28;20049;-83
2021/10/31 12:06:35;;;;;;;15.98;9.60;;;;;;;;;;5036353;28;20467;-84
2021/10/31 12:09:05;;;;;;;31.83;9.13;;;;;;;;;;5033679;28;20056;-84
2021/10/31 12:11:32;;;;;;;15.27;9.27;;;;;;;;;;5031834;28;20045;-83
2021/10/31 12:14:09;;;;;;;16.05;9.15;;;;;;;;;;5032677;28;20049;-85
2021/10/31 12:16:55;;;;;;;15.00;8.38;;;;;;;;;;5029953;28;20049;-83
2021/10/31 12:19:34;;;;;;;16.17;8.90;;;;;;;;;;5024945;28;20042;-86
2021/10/31 12:22:12;;;;;;;16.27;9.05;;;;;;;;;;5015885;28;20077;-87
2021/10/31 12:24:45;;;;;;;16.73;9.32;;;;;;;;;;5029459;28;20073;-85
2021/10/31 12:27:17;;;;;;;17.48;8.85;;;;;;;;;;5030937;28;20722;-85
2021/10/31 12:29:52;;;;;;;12.98;7.93;;;;;;;;;;5013258;28;20053;-87
2021/10/31 12:32:21;;;;;;;12.45;8.52;;;;;;;;;;5030984;28;20418;-84
2021/10/31 12:34:51;;;;;;;13.73;8.98;;;;;;;;;;5027505;28;20133;-86
2021/10/31 12:37:22;;;;;;;16.48;8.98;;;;;;;;;;5016457;28;20080;-85
2021/10/31 12:39:57;;;;;;;14.35;8.73;;;;;;;;;;5033283;28;20474;-85
2021/10/31 12:42:29;;;;;;;;;;;;;;;;;;5013754;28;20468;-82
2021/10/31 12:45:21;;;;;;;14.13;8.23;;;;;;;;;;5028835;28;20007;-86
2021/10/31 12:47:54;;;;;;;14.32;8.85;;;;;;;;;;5028452;28;20041;-80
2021/10/31 12:50:29;;;;;;;14.10;8.13;;;;;;;;;;5023752;28;20088;-78
2021/10/31 12:53:06;;;;;;;13.40;9.27;;;;;;;;;;5026249;28;20045;-83
2021/10/31 12:55:33;;;;;;;13.85;9.27;;;;;;;;;;5025444;28;20470;-83
2021/10/31 12:58:08;;;;;;;13.73;9.32;;;;;;;;;;5029946;28;20088;-84
2021/10/31 13:00:36;;;;;;;13.18;7.78;;;;;;;;;;5008361;28;20049;-80
2021/10/31 13:03:07;;;;;;;11.05;8.75;;;;;;;;;;5011625;28;20065;-80